Time;durP1;ratioP1;P1;durP2;ratioP2;P2;SDS_P1;SDS_P2;PMS_P1;PMS_P2;Temp;Humidity;BMP_temperature;BMP_pressure;BME280_temperature;BME280_humidity;BME280_pressure;Samples;Min_cycle;Max_cycle;Signal;HPM_P1;HPM_P2
2022/08/30 00:01:05;;;;;;;14.98;5.20;;;;;;;17.00;73.49;101976.75;4885746;29;20341;-79
2022/08/30 00:03:40;;;;;;;10.93;4.47;;;;;;;16.98;73.44;101976.78;4900962;29;20122;-79
2022/08/30 00:06:06;;;;;;;13.82;4.07;;;;;;;16.97;72.77;101980.41;4901052;29;20032;-79
2022/08/30 00:08:32;;;;;;;11.50;4.53;;;;;;;16.95;73.63;101976.03;4917883;29;20028;-79
2022/08/30 00:10:58;;;;;;;9.02;4.75;;;;;;;16.94;73.05;101976.97;4885619;29;20054;-79
2022/08/30 00:13:24;;;;;;;9.60;4.13;;;;;;;16.91;73.08;101969.00;4916571;29;20114;-79
2022/08/30 00:15:50;;;;;;;11.88;4.30;;;;;;;16.91;73.13;101975.25;4900792;29;20052;-79
2022/08/30 00:18:17;;;;;;;8.55;4.65;;;;;;;16.88;73.35;101969.09;4917814;29;20048;-79
2022/08/30 00:20:45;;;;;;;12.40;4.68;;;;;;;16.82;73.21;101964.81;4916927;29;20071;-79
2022/08/30 00:23:12;;;;;;;6.40;3.92;;;;;;;16.80;73.44;101969.34;4885427;29;20056;-79
2022/08/30 00:25:38;;;;;;;12.15;4.80;;;;;;;16.78;74.10;101968.50;4900429;29;20469;-79
2022/08/30 00:28:04;;;;;;;11.35;4.70;;;;;;;16.75;73.15;101974.78;4917699;29;20031;-79
2022/08/30 00:30:30;;;;;;;8.40;4.35;;;;;;;16.72;73.83;101974.88;4900743;29;20051;-79
2022/08/30 00:32:55;;;;;;;6.90;4.35;;;;;;;16.71;74.16;101972.22;4900342;29;20044;-79
2022/08/30 00:35:21;;;;;;;12.27;4.88;;;;;;;16.68;74.02;101970.53;4917490;29;20028;-79
2022/08/30 00:37:47;;;;;;;10.10;4.20;;;;;;;16.64;75.49;101968.00;4917147;29;20037;-79
2022/08/30 00:40:14;;;;;;;9.20;4.40;;;;;;;16.61;75.06;101971.63;4917422;29;20048;-79
2022/08/30 00:42:42;;;;;;;8.27;4.20;;;;;;;16.59;74.82;101981.47;4900246;29;20576;-79
2022/08/30 00:45:18;;;;;;;10.07;4.32;;;;;;;16.58;75.04;101973.53;4917251;29;20032;-79
2022/08/30 00:47:44;;;;;;;8.73;4.07;;;;;;;16.59;75.06;101973.47;4901710;29;20028;-79
2022/08/30 00:50:11;;;;;;;13.80;4.32;;;;;;;16.58;74.83;101970.84;4896405;29;20051;-79
2022/08/30 00:52:41;;;;;;;9.70;4.38;;;;;;;16.55;75.09;101972.69;4898849;29;20123;-79
2022/08/30 00:55:07;;;;;;;13.20;4.28;;;;;;;16.54;75.27;101975.41;4917123;29;20040;-79
2022/08/30 00:57:34;;;;;;;7.75;4.13;;;;;;;16.50;76.02;101971.06;4917016;29;20107;-79
2022/08/30 01:00:02;;;;;;;10.38;4.20;;;;;;;16.49;75.88;101982.66;4899928;29;20244;-79
2022/08/30 01:02:32;;;;;;;10.88;4.55;;;;;;;16.50;75.79;101982.66;4917159;29;20413;-79
2022/08/30 01:05:00;;;;;;;10.20;4.40;;;;;;;16.50;75.78;101979.97;4900037;29;20442;-79
2022/08/30 01:07:26;;;;;;;7.95;3.92;;;;;;;16.49;76.48;101972.88;4916815;29;20174;-79
2022/08/30 01:09:51;;;;;;;9.48;3.97;;;;;;;16.49;75.93;101980.00;4899848;29;20413;-79
2022/08/30 01:12:17;;;;;;;9.57;4.00;;;;;;;16.49;76.09;101980.00;4884397;29;20122;-79
2022/08/30 01:14:43;;;;;;;9.70;4.40;;;;;;;16.49;76.07;101983.56;4916992;29;20083;-79
2022/08/30 01:17:09;;;;;;;9.98;3.75;;;;;;;16.47;76.47;101989.88;4899843;29;20051;-79
2022/08/30 01:19:46;;;;;;;9.85;4.05;;;;;;;16.48;76.43;101987.16;4916696;29;20044;-79
2022/08/30 01:22:29;;;;;;;7.85;4.05;;;;;;;16.51;75.85;101997.75;4915334;29;20040;-79
2022/08/30 01:24:58;;;;;;;6.43;3.55;;;;;;;16.50;76.51;101993.34;4916557;29;20052;-79
2022/08/30 01:27:25;;;;;;;9.98;4.28;;;;;;;16.50;76.47;101985.31;4916500;29;20368;-79
2022/08/30 01:29:52;;;;;;;7.70;3.97;;;;;;;16.50;76.79;101984.44;4916618;29;20486;-79
2022/08/30 01:32:24;;;;;;;8.98;4.00;;;;;;;16.47;76.35;101985.41;4915792;29;20127;-79
2022/08/30 01:34:49;;;;;;;12.77;4.15;;;;;;;16.49;76.22;101996.03;4916786;29;20044;-79
2022/08/30 01:37:22;;;;;;;9.70;3.95;;;;;;;16.50;75.84;101997.81;4883947;29;20126;-79
2022/08/30 01:39:48;;;;;;;9.10;4.15;;;;;;;16.52;76.28;101998.66;4916460;29;20044;-79
2022/08/30 01:42:16;;;;;;;9.35;3.95;;;;;;;16.50;76.49;101992.47;4899599;29;20079;-79
2022/08/30 01:44:42;;;;;;;6.80;4.03;;;;;;;16.48;75.95;101986.28;4916275;29;20042;-79
2022/08/30 01:47:08;;;;;;;8.38;4.15;;;;;;;16.45;76.31;101992.59;4915441;29;20052;-79
2022/08/30 01:49:33;;;;;;;5.88;4.05;;;;;;;16.40;76.97;101993.66;4899156;29;20091;-79
2022/08/30 01:51:58;;;;;;;12.30;3.95;;;;;;;16.37;77.14;101985.69;4916251;29;20068;-79
2022/08/30 01:54:24;;;;;;;10.57;4.28;;;;;;;16.32;76.50;101986.72;4886972;29;20485;-79
2022/08/30 01:56:49;;;;;;;10.55;4.13;;;;;;;16.29;77.31;101977.88;4914380;29;20039;-79
2022/08/30 01:59:15;;;;;;;9.48;3.83;;;;;;;16.24;77.21;101975.34;4916255;29;20111;-79
2022/08/30 02:01:41;;;;;;;8.48;4.00;;;;;;;16.21;76.76;101983.44;4915856;29;20511;-75
2022/08/30 02:04:10;;;;;;;8.55;4.07;;;;;;;16.17;76.77;101986.25;4898887;29;20044;-75
2022/08/30 02:06:37;;;;;;;12.10;4.00;;;;;;;16.11;78.11;101980.13;4898848;29;20066;-75
2022/08/30 02:09:03;;;;;;;8.55;4.18;;;;;;;16.07;77.16;101980.25;4898962;29;20032;-75
2022/08/30 02:11:29;;;;;;;8.90;4.50;;;;;;;16.04;78.12;101977.69;4914970;29;20048;-74
2022/08/30 02:13:55;;;;;;;10.63;4.25;;;;;;;16.01;77.79;101970.63;4915821;29;20044;-79
2022/08/30 02:16:22;;;;;;;8.82;4.53;;;;;;;15.98;78.18;101981.41;4915994;29;20050;-79
2022/08/30 02:18:49;;;;;;;6.32;4.40;;;;;;;15.97;78.23;101979.63;4898714;29;20449;-79
2022/08/30 02:21:14;;;;;;;10.88;4.95;;;;;;;15.95;78.07;101983.25;4915785;29;20392;-79
2022/08/30 02:23:40;;;;;;;10.93;4.72;;;;;;;15.90;78.90;101970.91;4914060;29;20044;-79
2022/08/30 02:26:07;;;;;;;14.32;4.45;;;;;;;15.87;78.79;101976.34;4879873;29;20052;-79
2022/08/30 02:28:32;;;;;;;8.00;4.20;;;;;;;15.84;79.07;101970.19;4909743;29;20499;-79
2022/08/30 02:30:59;;;;;;;10.23;4.60;;;;;;;15.81;78.74;101970.28;4916019;29;20123;-79
2022/08/30 02:33:24;;;;;;;11.65;4.50;;;;;;;15.79;79.44;101972.97;4913509;29;20028;-79
2022/08/30 02:35:50;;;;;;;10.75;4.50;;;;;;;15.79;79.61;101975.66;4914703;29;20452;-79
2022/08/30 02:38:16;;;;;;;11.02;4.45;;;;;;;15.79;79.26;101974.78;4915227;29;20036;-79
2022/08/30 02:40:43;;;;;;;11.57;4.50;;;;;;;15.78;79.08;101975.69;4915009;29;20511;-79
2022/08/30 02:43:08;;;;;;;9.50;4.45;;;;;;;15.76;78.93;101973.06;4915231;29;20040;-79
2022/08/30 02:45:34;;;;;;;12.68;5.47;;;;;;;15.77;79.25;101968.59;4901231;29;20036;-79
2022/08/30 02:48:00;;;;;;;12.27;4.65;;;;;;;15.74;79.88;101972.22;4881474;29;20039;-79
2022/08/30 02:50:26;;;;;;;10.65;5.35;;;;;;;15.73;80.00;101965.13;4884193;29;20520;-79
2022/08/30 02:52:52;;;;;;;8.43;4.78;;;;;;;15.68;79.71;101961.66;4901561;29;20019;-79
2022/08/30 02:55:18;;;;;;;7.22;4.32;;;;;;;15.69;79.78;101967.00;4918912;29;20104;-79
2022/08/30 02:57:44;;;;;;;12.38;4.97;;;;;;;15.67;79.72;101967.91;4918957;29;20048;-79
2022/08/30 03:00:12;;;;;;;9.77;5.00;;;;;;;15.68;80.28;101969.69;4901708;29;20063;-79
2022/08/30 03:02:39;;;;;;;11.73;5.03;;;;;;;15.66;80.43;101960.81;4899347;29;20076;-80
2022/08/30 03:05:07;;;;;;;8.35;4.97;;;;;;;15.63;79.34;101955.56;4918633;29;20392;-80
2022/08/30 03:07:33;;;;;;;7.82;5.20;;;;;;;15.60;80.48;101951.19;4908567;29;20155;-80
2022/08/30 03:09:58;;;;;;;8.88;5.38;;;;;;;15.57;80.48;101945.91;4901800;29;20048;-79
2022/08/30 03:12:24;;;;;;;11.95;5.53;;;;;;;15.56;80.41;101946.81;4885238;29;20096;-80
2022/08/30 03:14:50;;;;;;;9.55;5.10;;;;;;;15.54;80.35;101954.00;4918303;29;20115;-79
2022/08/30 03:17:16;;;;;;;8.45;5.35;;;;;;;15.52;80.90;101953.16;4917332;29;20492;-79
2022/08/30 03:19:42;;;;;;;9.95;5.47;;;;;;;15.51;80.19;101953.22;4918103;29;20120;-79
2022/08/30 03:22:09;;;;;;;8.32;5.20;;;;;;;15.49;80.72;101951.44;4918475;29;20555;-79
2022/08/30 03:24:35;;;;;;;9.73;5.45;;;;;;;15.48;80.69;101949.69;4917800;29;20127;-79
2022/08/30 03:27:00;;;;;;;9.45;5.70;;;;;;;15.48;80.76;101952.34;4901309;29;20124;-80
2022/08/30 03:29:26;;;;;;;6.85;5.57;;;;;;;15.47;80.52;101961.25;4917912;29;20032;-79
2022/08/30 03:31:51;;;;;;;7.40;5.25;;;;;;;15.52;80.40;101963.81;4900952;29;20436;-80
2022/08/30 03:34:17;;;;;;;11.18;6.10;;;;;;;15.51;80.87;101962.09;4883152;29;20111;-79
2022/08/30 03:36:43;;;;;;;8.20;5.53;;;;;;;15.50;80.87;101968.31;4900918;29;20039;-79
2022/08/30 03:39:08;;;;;;;8.68;5.85;;;;;;;15.48;81.34;101972.84;4901119;29;20063;-79
2022/08/30 03:41:34;;;;;;;14.07;6.40;;;;;;;15.46;81.16;101969.31;4917874;29;20064;-79
2022/08/30 03:44:01;;;;;;;17.80;6.20;;;;;;;15.43;80.79;101962.28;4917606;29;20040;-79
2022/08/30 03:46:26;;;;;;;10.60;6.10;;;;;;;15.44;81.56;101960.47;4900893;29;20040;-79
2022/08/30 03:48:54;;;;;;;14.52;6.28;;;;;;;15.42;82.02;101960.50;4898962;29;20122;-79
2022/08/30 03:51:21;;;;;;;8.23;5.72;;;;;;;15.39;81.63;101959.72;4916238;29;20036;-79
2022/08/30 03:53:46;;;;;;;7.68;6.03;;;;;;;15.37;81.57;101956.19;4914713;29;20036;-79
2022/08/30 03:56:12;;;;;;;10.38;5.47;;;;;;;15.36;81.65;101954.47;4884587;29;20127;-79
2022/08/30 03:58:39;;;;;;;12.80;6.18;;;;;;;15.35;81.12;101958.88;4900661;29;20071;-80
2022/08/30 04:01:05;;;;;;;7.32;5.93;;;;;;;15.33;80.99;101959.84;4900944;29;20025;-80
2022/08/30 04:03:31;;;;;;;8.95;6.15;;;;;;;15.29;81.07;101952.84;4900368;29;20548;-79
2022/08/30 04:05:57;;;;;;;8.93;6.20;;;;;;;15.26;81.76;101959.13;4917700;29;20032;-80
2022/08/30 04:08:23;;;;;;;10.07;6.00;;;;;;;15.24;82.24;101958.28;4900428;29;20032;-79
2022/08/30 04:10:49;;;;;;;9.60;6.75;;;;;;;15.25;82.33;101960.91;4885310;29;20052;-79
2022/08/30 04:13:15;;;;;;;8.73;6.13;;;;;;;15.26;81.54;101961.81;4917391;29;20218;-79
2022/08/30 04:15:41;;;;;;;10.85;6.88;;;;;;;15.27;82.05;101966.22;4900346;29;20042;-80
2022/08/30 04:18:07;;;;;;;15.98;6.68;;;;;;;15.25;82.27;101962.69;4900512;29;20185;-79
2022/08/30 04:20:33;;;;;;;11.43;6.97;;;;;;;15.24;81.95;101969.81;4917038;29;20135;-80
2022/08/30 04:22:58;;;;;;;11.07;6.78;;;;;;;15.27;82.47;101967.09;4884763;29;20028;-79
2022/08/30 04:25:24;;;;;;;8.85;6.40;;;;;;;15.27;82.18;101969.75;4916437;29;20440;-79
2022/08/30 04:27:50;;;;;;;10.60;6.53;;;;;;;15.26;81.57;101965.34;4900066;29;20044;-80
2022/08/30 04:30:18;;;;;;;9.52;7.13;;;;;;;15.25;82.01;101966.22;4916876;29;20055;-80
2022/08/30 04:32:44;;;;;;;11.30;7.28;;;;;;;15.23;82.66;101972.53;4915873;29;20044;-79
2022/08/30 04:35:10;;;;;;;13.82;6.82;;;;;;;15.21;81.96;101969.91;4917008;29;20408;-79
2022/08/30 04:37:37;;;;;;;10.98;6.85;;;;;;;15.19;82.13;101974.41;4916803;29;20362;-80
2022/08/30 04:40:04;;;;;;;9.52;6.95;;;;;;;15.16;82.58;101974.47;4900031;29;20046;-80
2022/08/30 04:42:32;;;;;;;8.90;6.93;;;;;;;15.14;82.32;101980.75;4899982;29;20035;-80
2022/08/30 04:45:00;;;;;;;12.93;7.85;;;;;;;15.14;82.43;101978.09;4899827;29;20114;-80
2022/08/30 04:47:26;;;;;;;12.40;7.65;;;;;;;15.13;83.41;101979.84;4915838;29;20036;-80
2022/08/30 04:49:52;;;;;;;9.43;7.30;;;;;;;15.11;82.55;101987.03;4915197;29;20119;-80
2022/08/30 04:52:18;;;;;;;12.27;7.82;;;;;;;15.11;82.77;101979.03;4916686;29;20036;-79
2022/08/30 04:54:43;;;;;;;7.68;6.65;;;;;;;15.13;82.32;101984.31;4899622;29;20528;-80
2022/08/30 04:57:09;;;;;;;12.52;7.95;;;;;;;15.13;83.12;101995.88;4916713;29;20047;-79
2022/08/30 04:59:36;;;;;;;10.77;7.63;;;;;;;15.12;82.78;101999.47;4916424;29;20036;-79
2022/08/30 05:02:02;;;;;;;11.15;7.85;;;;;;;15.13;83.03;101995.88;4919282;29;20055;-80
2022/08/30 05:04:27;;;;;;;10.75;8.10;;;;;;;15.14;83.04;101991.44;4916307;29;20020;-80
2022/08/30 05:06:53;;;;;;;8.90;7.47;;;;;;;15.11;82.53;101997.72;4883376;29;20040;-80
2022/08/30 05:09:20;;;;;;;14.10;8.23;;;;;;;15.12;83.17;101994.13;4899352;29;20036;-81
2022/08/30 05:11:46;;;;;;;12.73;8.52;;;;;;;15.11;83.43;101986.13;4899428;29;20465;-79
2022/08/30 05:14:12;;;;;;;17.80;8.23;;;;;;;15.10;83.16;101990.59;4880701;29;20128;-80
2022/08/30 05:16:38;;;;;;;9.43;7.50;;;;;;;15.12;82.77;101990.59;4908943;29;20536;-80
2022/08/30 05:19:04;;;;;;;11.88;8.00;;;;;;;15.12;82.73;101998.59;4916015;29;20527;-80
2022/08/30 05:21:29;;;;;;;8.77;7.50;;;;;;;15.12;83.00;102001.25;4896420;29;20052;-79
2022/08/30 05:23:58;;;;;;;10.20;8.40;;;;;;;15.10;83.26;102001.28;4913887;29;20446;-80
2022/08/30 05:26:28;;;;;;;8.90;8.00;;;;;;;15.10;83.28;102006.63;4916539;29;20099;-80
2022/08/30 05:28:56;;;;;;;10.02;7.80;;;;;;;15.13;83.18;102005.66;4915834;29;20048;-79
2022/08/30 05:31:23;;;;;;;9.63;7.68;;;;;;;15.14;83.42;102007.44;4898724;29;20124;-79
2022/08/30 05:33:50;;;;;;;11.65;7.97;;;;;;;15.14;83.58;102005.66;4915161;29;20157;-79
2022/08/30 05:36:17;;;;;;;11.73;8.77;;;;;;;15.16;83.99;102016.28;4915981;29;20031;-80
2022/08/30 05:38:43;;;;;;;15.70;8.10;;;;;;;15.21;83.52;102006.41;4895119;29;20059;-80
2022/08/30 05:41:09;;;;;;;12.40;8.02;;;;;;;15.24;83.31;102015.19;4899963;29;20496;-80
2022/08/30 05:43:36;;;;;;;10.15;8.57;;;;;;;15.28;83.62;102016.00;4898927;29;20531;-80
2022/08/30 05:46:10;;;;;;;9.68;8.68;;;;;;;15.32;83.62;102014.16;4883611;29;20460;-80
2022/08/30 05:48:36;;;;;;;15.70;8.63;;;;;;;15.36;83.35;102016.72;4911312;29;20100;-80
2022/08/30 05:51:16;;;;;;;14.57;8.57;;;;;;;15.40;83.21;102021.03;4898882;29;20024;-80
2022/08/30 05:53:42;;;;;;;9.55;8.43;;;;;;;15.45;83.04;102019.19;4898429;29;20461;-80
2022/08/30 05:56:13;;;;;;;13.20;8.30;;;;;;;15.50;83.15;102019.03;4915691;29;20040;-80
2022/08/30 05:58:39;;;;;;;10.75;8.57;;;;;;;15.56;83.04;102023.38;4898458;29;20036;-80
2022/08/30 06:01:07;;;;;;;14.98;8.50;;;;;;;15.59;83.11;102020.63;4898463;29;20043;-80
2022/08/30 06:03:32;;;;;;;11.60;8.80;;;;;;;15.62;82.44;102024.09;4915697;29;20116;-80
2022/08/30 06:06:02;;;;;;;10.52;7.72;;;;;;;15.65;81.96;102024.03;4893656;29;20467;-80
2022/08/30 06:08:28;;;;;;;16.42;8.00;;;;;;;15.65;82.43;102015.13;4914266;29;20039;-81
2022/08/30 06:10:53;;;;;;;9.07;6.97;;;;;;;15.65;81.07;102018.69;4915747;29;20036;-80
2022/08/30 06:13:19;;;;;;;9.82;7.18;;;;;;;15.66;81.69;102008.88;4889611;29;20485;-80
2022/08/30 06:15:45;;;;;;;11.02;7.68;;;;;;;15.71;81.67;102014.16;4883148;29;20036;-80
2022/08/30 06:18:11;;;;;;;11.40;8.02;;;;;;;15.77;82.15;102016.66;4898466;29;20048;-80
2022/08/30 06:20:42;;;;;;;11.30;7.97;;;;;;;15.85;81.70;102012.00;4882705;29;20047;-80
2022/08/30 06:23:09;;;;;;;10.13;7.50;;;;;;;15.93;81.56;102009.16;4898672;29;20036;-80
2022/08/30 06:25:36;;;;;;;11.90;7.78;;;;;;;16.01;81.14;102008.03;4906076;29;20127;-80
2022/08/30 06:28:04;;;;;;;8.77;7.22;;;;;;;16.06;81.11;102005.25;4915968;29;20374;-80
2022/08/30 06:30:29;;;;;;;13.13;8.15;;;;;;;16.13;80.71;102009.50;4914606;29;20055;-80
2022/08/30 06:32:55;;;;;;;14.73;7.28;;;;;;;16.17;80.34;102011.19;4913143;29;20384;-80
2022/08/30 06:35:20;;;;;;;12.77;7.47;;;;;;;16.24;80.33;102011.88;4915568;29;20493;-80
2022/08/30 06:37:45;;;;;;;12.13;7.18;;;;;;;16.30;80.00;102006.38;4880838;29;20111;-80
2022/08/30 06:40:12;;;;;;;10.32;7.30;;;;;;;16.35;79.80;102012.50;4882944;29;20040;-80
2022/08/30 06:42:38;;;;;;;9.77;7.35;;;;;;;16.43;79.31;102006.94;4883304;29;20040;-81
2022/08/30 06:45:05;;;;;;;9.98;6.90;;;;;;;16.48;79.17;102010.34;4915090;29;20131;-81
2022/08/30 06:47:30;;;;;;;9.88;6.45;;;;;;;16.55;78.27;102006.59;4910766;29;20366;-80
2022/08/30 06:49:57;;;;;;;8.05;6.63;;;;;;;16.61;78.90;102006.41;4894113;29;20039;-80
2022/08/30 06:52:23;;;;;;;10.10;6.47;;;;;;;16.67;78.58;102003.56;4915282;29;20119;-81
2022/08/30 06:54:49;;;;;;;9.25;6.93;;;;;;;16.74;78.02;102004.25;4902206;29;20175;-80
2022/08/30 06:57:14;;;;;;;10.65;6.47;;;;;;;16.83;77.64;101998.66;4915443;29;20124;-81
2022/08/30 06:59:40;;;;;;;10.52;6.65;;;;;;;16.88;77.36;102009.22;4915179;29;20500;-80
2022/08/30 07:02:06;;;;;;;7.35;6.20;;;;;;;16.91;77.36;102003.78;4914194;29;20039;-80
2022/08/30 07:04:33;;;;;;;12.57;6.55;;;;;;;16.96;77.10;102005.41;4897318;29;20072;-81
2022/08/30 07:06:58;;;;;;;12.02;6.30;;;;;;;17.02;77.10;102009.69;4898323;29;20040;-81
2022/08/30 07:09:24;;;;;;;8.90;5.90;;;;;;;17.10;77.00;102007.66;4888612;29;20067;-81
2022/08/30 07:11:51;;;;;;;6.85;5.82;;;;;;;17.19;75.94;102009.19;4897905;29;20044;-81
2022/08/30 07:14:17;;;;;;;6.88;5.95;;;;;;;17.30;76.29;102012.41;4915594;29;20043;-81
2022/08/30 07:16:43;;;;;;;8.43;5.25;;;;;;;17.39;74.95;102017.47;4897973;29;20444;-81
2022/08/30 07:19:09;;;;;;;7.75;5.40;;;;;;;17.47;75.04;102014.53;4898036;29;20035;-81
2022/08/30 07:21:38;;;;;;;8.82;5.80;;;;;;;17.59;75.01;102014.16;4897930;29;20039;-81
2022/08/30 07:24:05;;;;;;;12.75;6.00;;;;;;;17.74;74.51;102019.94;4897454;29;20038;-80
2022/08/30 07:26:38;;;;;;;8.27;5.40;;;;;;;17.81;73.78;102027.75;4915224;29;20377;-81
2022/08/30 07:29:04;;;;;;;8.52;4.78;;;;;;;17.93;73.90;102020.25;4914867;29;20392;-81
2022/08/30 07:31:31;;;;;;;7.50;5.32;;;;;;;17.99;72.56;102018.22;4901190;29;20067;-81
2022/08/30 07:33:57;;;;;;;8.35;4.68;;;;;;;18.07;73.03;102020.63;4888102;29;20115;-81
2022/08/30 07:36:23;;;;;;;12.68;5.13;;;;;;;18.14;72.85;102021.28;4918435;29;20472;-81
2022/08/30 07:38:50;;;;;;;12.02;5.05;;;;;;;18.23;72.15;102020.97;4901244;29;20083;-81
2022/08/30 07:41:24;;;;;;;8.02;4.45;;;;;;;18.29;71.33;102015.38;4913818;29;20036;-81
2022/08/30 07:43:50;;;;;;;7.32;4.40;;;;;;;18.42;70.97;102027.44;4905782;29;20064;-81
2022/08/30 07:46:16;;;;;;;6.07;4.30;;;;;;;18.55;70.57;102027.88;4917564;29;20027;-81
2022/08/30 07:48:42;;;;;;;7.38;3.97;;;;;;;18.67;70.35;102026.56;4917388;29;20040;-81
2022/08/30 07:51:09;;;;;;;7.95;4.60;;;;;;;18.75;69.35;102024.47;4918125;29;20051;-81
2022/08/30 07:53:35;;;;;;;7.70;4.18;;;;;;;18.88;69.83;102027.59;4917557;29;20047;-81
2022/08/30 07:56:00;;;;;;;6.95;4.47;;;;;;;19.04;69.30;102035.91;4916554;29;20052;-80
2022/08/30 07:58:26;;;;;;;10.23;4.18;;;;;;;19.16;68.48;102034.56;4899314;29;20029;-81
2022/08/30 08:00:52;;;;;;;11.45;4.38;;;;;;;19.25;67.36;102032.41;4910319;29;20048;-81
2022/08/30 08:03:18;;;;;;;8.30;4.00;;;;;;;19.33;67.26;102030.28;4900901;29;20072;-81
2022/08/30 08:05:44;;;;;;;7.75;3.67;;;;;;;19.44;66.67;102023.63;4918047;29;20402;-81
2022/08/30 08:08:11;;;;;;;8.25;3.45;;;;;;;19.49;66.05;102022.50;4885460;29;20484;-81
2022/08/30 08:10:39;;;;;;;6.28;3.33;;;;;;;19.59;66.34;102030.19;4885271;29;20534;-81
2022/08/30 08:13:05;;;;;;;8.40;3.15;;;;;;;19.65;65.64;102030.81;4900934;29;20070;-81
2022/08/30 08:15:31;;;;;;;4.63;3.35;;;;;;;19.63;64.18;102032.66;4917851;29;20169;-81
2022/08/30 08:18:00;;;;;;;6.00;2.88;;;;;;;19.65;64.86;102035.31;4917698;29;20036;-81
2022/08/30 08:20:26;;;;;;;7.35;3.08;;;;;;;19.76;65.28;102025.91;4916316;29;20063;-80
2022/08/30 08:22:51;;;;;;;7.60;2.90;;;;;;;19.90;64.47;102029.81;4917642;29;20498;-80
2022/08/30 08:25:18;;;;;;;9.57;3.03;;;;;;;20.01;63.55;102034.75;4915946;29;20084;-80
2022/08/30 08:27:47;;;;;;;13.20;2.72;;;;;;;20.07;62.60;102027.28;4900669;29;20042;-80
2022/08/30 08:30:13;;;;;;;7.50;2.85;;;;;;;20.16;61.91;102029.59;4900322;29;20461;-80
2022/08/30 08:32:39;;;;;;;5.47;2.83;;;;;;;20.25;61.12;102024.75;4917563;29;20020;-80
2022/08/30 08:35:05;;;;;;;4.88;2.50;;;;;;;20.33;60.98;102030.69;4900525;29;20087;-80
2022/08/30 08:37:30;;;;;;;6.63;2.67;;;;;;;20.47;60.74;102032.75;4900457;29;20048;-80
2022/08/30 08:39:56;;;;;;;6.13;2.60;;;;;;;20.59;60.17;102030.41;4917369;29;20047;-80
2022/08/30 08:42:34;;;;;;;9.23;2.83;;;;;;;20.73;60.40;102028.94;4916733;29;20104;-81
2022/08/30 08:45:07;;;;;;;7.25;2.60;;;;;;;20.68;59.43;102037.22;4900185;29;20068;-80
2022/08/30 08:47:45;;;;;;;5.50;2.45;;;;;;;20.66;59.33;102035.53;4914852;29;20032;-76
2022/08/30 08:50:16;;;;;;;12.05;2.60;;;;;;;20.67;59.00;102039.94;4904055;29;20036;-76
2022/08/30 08:55:50;;;;;;;10.18;2.95;;;;;;;20.84;58.00;102040.06;4917465;29;20038;-76
2022/08/30 08:58:25;;;;;;;4.60;2.35;;;;;;;20.94;59.01;102045.91;4917420;29;20123;-76
2022/08/30 09:00:52;;;;;;;6.68;2.47;;;;;;;21.08;57.67;102043.44;4917143;29;20052;-76
2022/08/30 09:03:23;;;;;;;5.60;2.50;;;;;;;21.18;57.51;102043.88;4917145;29;20421;-76
2022/08/30 09:05:50;;;;;;;6.88;2.45;;;;;;;21.24;57.69;102047.16;4917074;29;20111;-76
2022/08/30 09:08:17;;;;;;;12.23;2.38;;;;;;;21.29;57.05;102044.25;4917226;29;20036;-76
2022/08/30 09:10:55;;;;;;;6.80;2.50;;;;;;;21.32;57.78;102046.78;4917213;29;20395;-76
2022/08/30 09:13:23;;;;;;;5.07;2.63;;;;;;;21.36;56.44;102051.06;4916947;29;20081;-76
2022/08/30 09:15:50;;;;;;;6.30;2.80;;;;;;;21.49;56.18;102046.03;4916987;29;20476;-76
2022/08/30 09:18:17;;;;;;;4.50;2.15;;;;;;;21.67;55.56;102041.53;4915697;29;20042;-76
2022/08/30 09:20:47;;;;;;;3.10;1.90;;;;;;;21.81;54.49;102044.44;4916987;29;20055;-76
2022/08/30 09:23:13;;;;;;;7.03;2.45;;;;;;;21.99;54.66;102045.31;4916952;29;20048;-76
2022/08/30 09:25:49;;;;;;;4.43;2.30;;;;;;;22.17;54.38;102038.09;4916564;29;20095;-76
2022/08/30 09:28:21;;;;;;;3.47;2.10;;;;;;;22.28;54.14;102038.47;4916776;29;20044;-76
2022/08/30 09:31:20;;;;;;;2.42;1.70;;;;;;;22.38;54.85;102041.56;4916809;29;20115;-76
2022/08/30 09:34:04;;;;;;;9.15;2.08;;;;;;;22.41;53.72;102044.09;4851390;29;20080;-76
2022/08/30 09:36:38;;;;;;;10.52;2.45;;;;;;;22.36;52.83;102048.84;4916606;29;20043;-76
2022/08/30 09:39:30;;;;;;;3.90;2.10;;;;;;;22.38;53.72;102046.06;4916375;29;20484;-76
2022/08/30 09:42:17;;;;;;;4.07;2.03;;;;;;;22.39;54.05;102043.28;4916446;29;20039;-76
2022/08/30 09:44:43;;;;;;;3.10;1.90;;;;;;;22.53;52.41;102043.44;4916325;29;20087;-75
2022/08/30 09:47:19;;;;;;;9.32;2.20;;;;;;;22.60;53.32;102035.91;4896131;29;20417;-75
2022/08/30 09:49:44;;;;;;;7.20;1.98;;;;;;;22.54;51.29;102045.16;4914137;29;20364;-76
2022/08/30 09:52:18;;;;;;;7.03;2.25;;;;;;;22.60;51.01;102035.00;4897206;29;20036;-76
2022/08/30 09:55:02;;;;;;;8.75;2.30;;;;;;;22.75;51.92;102050.41;4893882;29;20047;-75
2022/08/30 09:57:43;;;;;;;6.60;1.90;;;;;;;22.94;51.46;102039.44;4911583;29;20440;-75
2022/08/30 10:00:20;;;;;;;;;;;;;;;23.16;51.66;102037.31;4915471;29;20497;-75
2022/08/30 10:03:38;;;;;;;9.27;1.80;;;;;;;23.47;51.13;102035.59;4898492;29;19914;-76
2022/08/30 10:06:26;;;;;;;5.30;1.95;;;;;;;23.70;49.96;102045.09;4897703;29;20047;-76
2022/08/30 10:09:10;;;;;;;3.47;1.45;;;;;;;23.72;49.88;102039.59;4914419;29;20044;-76
2022/08/30 10:11:51;;;;;;;7.70;2.15;;;;;;;23.64;49.25;102041.84;4897010;29;20131;-75
2022/08/30 10:14:44;;;;;;;6.57;2.20;;;;;;;23.61;49.24;102042.91;4895991;29;20452;-76
2022/08/30 10:17:33;;;;;;;6.95;2.30;;;;;;;23.67;49.17;102047.13;4914465;29;20043;-75
2022/08/30 10:20:16;;;;;;;3.53;1.95;;;;;;;23.65;48.83;102041.78;4897401;29;20035;-75
2022/08/30 10:23:03;;;;;;;4.90;1.83;;;;;;;23.79;49.18;102035.63;4907848;29;20049;-76
2022/08/30 10:25:36;;;;;;;11.57;2.25;;;;;;;24.14;48.05;102027.22;4911108;29;20123;-75
2022/08/30 10:28:36;;;;;;;3.25;1.60;;;;;;;24.48;48.23;102034.19;4897647;29;20075;-76
2022/08/30 10:31:29;;;;;;;8.45;1.63;;;;;;;24.86;47.28;102028.22;4909729;29;20047;-76
2022/08/30 10:34:01;;;;;;;3.15;1.52;;;;;;;24.99;45.16;102033.72;4881019;29;20070;-76
2022/08/30 10:36:34;;;;;;;6.95;1.70;;;;;;;25.06;44.61;102035.06;4898173;29;20032;-76
2022/08/30 10:39:02;;;;;;;9.52;1.90;;;;;;;25.16;43.64;102024.50;4912743;29;20040;-75
2022/08/30 10:41:39;;;;;;;5.32;1.80;;;;;;;25.19;43.39;102027.03;4912822;29;20079;-76
2022/08/30 10:44:17;;;;;;;11.95;2.03;;;;;;;25.22;44.42;102019.59;4914485;29;20064;-76
2022/08/30 10:47:10;;;;;;;7.07;1.90;;;;;;;25.36;45.08;102031.38;4908879;29;20396;-76
2022/08/30 10:49:42;;;;;;;8.00;1.77;;;;;;;25.46;43.04;102022.50;4914470;29;20035;-75
2022/08/30 10:52:11;;;;;;;5.72;1.88;;;;;;;25.40;42.85;102027.50;4892058;29;20372;-76
2022/08/30 10:54:49;;;;;;;7.20;1.65;;;;;;;25.53;43.65;102018.44;4910256;29;20485;-76
2022/08/30 10:57:15;;;;;;;10.18;1.52;;;;;;;25.68;42.46;102013.81;4896755;29;20398;-76
2022/08/30 10:59:53;;;;;;;4.75;1.60;;;;;;;25.72;42.30;102006.38;4897298;29;20040;-75
2022/08/30 11:02:28;;;;;;;7.28;1.63;;;;;;;25.91;43.31;102014.13;4893938;29;20387;-76
2022/08/30 11:05:11;;;;;;;4.43;2.00;;;;;;;26.04;41.52;102020.47;4915276;29;20032;-76
2022/08/30 11:08:01;;;;;;;9.85;1.90;;;;;;;26.17;40.94;102012.34;4918339;29;20076;-76
2022/08/30 11:11:02;;;;;;;8.45;2.05;;;;;;;26.13;41.22;102013.53;4901170;29;20147;-76
2022/08/30 11:13:30;;;;;;;;;;;;;;;26.07;42.91;102013.97;4918990;29;20044;-76
2022/08/30 11:16:09;;;;;;;5.95;2.03;;;;;;;26.01;41.23;102004.38;4918284;29;19997;-76
2022/08/30 11:18:55;;;;;;;6.00;1.92;;;;;;;26.11;41.54;102007.34;4897251;29;20048;-76
2022/08/30 11:21:38;;;;;;;6.80;1.67;;;;;;;25.90;40.39;102018.69;4897343;29;20047;-76
2022/08/30 11:24:20;;;;;;;9.00;2.05;;;;;;;25.87;41.18;102013.50;4903531;29;20080;-76
2022/08/30 11:26:47;;;;;;;5.43;1.88;;;;;;;25.75;40.78;102006.16;4905330;29;20047;-76
2022/08/30 11:29:33;;;;;;;4.22;1.55;;;;;;;25.87;42.18;102018.06;4902515;29;20046;-76
2022/08/30 11:32:22;;;;;;;6.15;2.22;;;;;;;26.15;41.49;102006.16;4891530;29;20529;-76
2022/08/30 11:34:51;;;;;;;4.43;1.80;;;;;;;26.40;40.07;102002.59;4915919;29;20074;-76